createdAt,value
2022-09-11T00:01:29.086Z,98465.47
2022-09-11T00:03:56.427Z,98462.09
2022-09-11T00:06:29.836Z,98455.41
2022-09-11T00:09:01.359Z,98452.31
2022-09-11T00:11:41.802Z,98452.47
2022-09-11T00:14:13.611Z,98450.97
2022-09-11T00:16:44.959Z,98456.69
2022-09-11T00:19:18.906Z,98463.25
2022-09-11T00:21:46.089Z,98459.34
2022-09-11T00:24:12.929Z,98450.09
2022-09-11T00:26:41.020Z,98449.56
2022-09-11T00:29:08.089Z,98453.44
2022-09-11T00:31:35.066Z,98450.34
2022-09-11T00:34:01.681Z,98448.69
2022-09-11T00:36:35.618Z,98452.31
2022-09-11T00:39:02.130Z,98451.16
2022-09-11T00:41:34.220Z,98457.00
2022-09-11T00:44:17.854Z,98458.50
2022-09-11T00:46:44.199Z,98454.44
2022-09-11T00:49:42.862Z,98462.69
2022-09-11T00:52:33.099Z,98458.22
2022-09-11T00:55:23.035Z,98455.75
2022-09-11T00:57:58.390Z,98460.38
2022-09-11T01:00:24.888Z,98458.03
2022-09-11T01:02:54.520Z,98460.69
2022-09-11T01:05:24.559Z,98467.13
2022-09-11T01:07:54.394Z,98462.34
2022-09-11T01:10:41.286Z,98462.81
2022-09-11T01:13:28.202Z,98464.25
2022-09-11T01:16:09.361Z,98468.75
2022-09-11T01:18:46.411Z,98475.41
2022-09-11T01:21:35.875Z,98468.69
2022-09-11T01:24:26.353Z,98468.97
2022-09-11T01:27:41.917Z,98467.84
2022-09-11T01:30:22.915Z,98478.50
2022-09-11T01:33:22.794Z,98481.41
2022-09-11T01:35:57.338Z,98487.41
2022-09-11T01:38:37.662Z,98493.03
2022-09-11T01:41:20.541Z,98489.75
2022-09-11T01:44:03.743Z,98496.09
2022-09-11T01:46:38.811Z,98495.75
2022-09-11T01:49:28.830Z,98498.34
2022-09-11T01:52:05.914Z,98500.28
2022-09-11T01:54:42.694Z,98497.94
2022-09-11T01:57:18.482Z,98508.66
2022-09-11T01:59:52.596Z,98508.00
2022-09-11T02:02:28.858Z,98508.25
2022-09-11T02:05:15.529Z,98510.31
2022-09-11T02:07:52.726Z,98515.03
2022-09-11T02:10:30.067Z,98513.28
2022-09-11T02:13:13.966Z,98511.66
2022-09-11T02:15:49.491Z,98521.59
2022-09-11T02:18:40.360Z,98514.88
2022-09-11T02:21:07.083Z,98518.38
2022-09-11T02:23:33.634Z,98518.38
2022-09-11T02:26:03.710Z,98526.19
2022-09-11T02:28:30.217Z,98522.88
2022-09-11T02:30:56.931Z,98518.03
2022-09-11T02:33:37.561Z,98529.22
2022-09-11T02:36:49.099Z,98529.91
2022-09-11T02:39:40.319Z,98530.88
2022-09-11T02:42:55.381Z,98536.31
2022-09-11T02:46:17.481Z,98540.41
2022-09-11T02:49:29.752Z,98545.09
2022-09-11T02:52:18.313Z,98538.38
2022-09-11T02:55:16.470Z,98540.25
2022-09-11T02:57:58.418Z,98547.97
2022-09-11T03:00:24.971Z,98542.00
2022-09-11T03:02:53.499Z,98548.47
2022-09-11T03:05:21.413Z,98547.78
2022-09-11T03:07:47.866Z,98548.06
2022-09-11T03:10:14.794Z,98549.38
2022-09-11T03:12:41.763Z,98545.34
2022-09-11T03:15:11.937Z,98544.81
2022-09-11T03:17:38.748Z,98551.22
2022-09-11T03:20:06.211Z,98549.28
2022-09-11T03:22:32.679Z,98546.22
2022-09-11T03:24:59.164Z,98546.47
2022-09-11T03:27:25.945Z,98545.38
2022-09-11T03:29:52.392Z,98549.72
2022-09-11T03:32:18.955Z,98549.00
2022-09-11T03:34:47.211Z,98542.44
2022-09-11T03:37:13.702Z,98539.53
2022-09-11T03:39:40.167Z,98545.53
2022-09-11T03:42:06.723Z,98537.44
2022-09-11T03:44:33.148Z,98538.25
2022-09-11T03:47:00.196Z,98540.84
2022-09-11T03:49:26.709Z,98541.59
2022-09-11T03:51:53.134Z,98542.00
2022-09-11T03:54:20.847Z,98539.78
2022-09-11T03:56:47.279Z,98542.06
2022-09-11T03:59:13.811Z,98550.84
2022-09-11T04:01:40.318Z,98544.84
2022-09-11T04:04:06.771Z,98550.41
2022-09-11T04:06:33.308Z,98546.34
2022-09-11T04:09:00.469Z,98554.88
2022-09-11T04:11:27.073Z,98559.50
2022-09-11T04:13:54.559Z,98564.69
2022-09-11T04:16:21.051Z,98561.06
2022-09-11T04:18:49.345Z,98571.25
2022-09-11T04:21:18.520Z,98572.91
2022-09-11T04:23:45.655Z,98567.03
2022-09-11T04:26:15.661Z,98572.50
2022-09-11T04:28:43.335Z,98567.47
2022-09-11T04:31:10.031Z,98576.25
2022-09-11T04:33:37.311Z,98573.91
2022-09-11T04:36:07.198Z,98575.56
2022-09-11T04:38:34.262Z,98572.78
2022-09-11T04:41:03.138Z,98574.91
2022-09-11T04:43:35.368Z,98563.03
2022-09-11T04:46:12.088Z,98571.56
2022-09-11T04:49:04.436Z,98575.06
2022-09-11T04:51:39.229Z,98578.13
2022-09-11T04:54:07.671Z,98580.22
2022-09-11T04:56:40.082Z,98583.50
2022-09-11T04:59:13.393Z,98577.06
2022-09-11T05:01:40.292Z,98576.75
2022-09-11T05:04:06.745Z,98582.19
2022-09-11T05:06:33.180Z,98580.97
2022-09-11T05:09:05.884Z,98583.22
2022-09-11T05:11:34.136Z,98584.91
2022-09-11T05:14:00.646Z,98589.94
2022-09-11T05:16:29.849Z,98593.16
2022-09-11T05:18:57.704Z,98596.09
2022-09-11T05:21:26.597Z,98602.53
2022-09-11T05:23:57.846Z,98601.41
2022-09-11T05:26:31.465Z,98597.91
2022-09-11T05:29:02.380Z,98600.88
2022-09-11T05:31:29.641Z,98603.09
2022-09-11T05:33:56.756Z,98601.03
2022-09-11T05:36:24.051Z,98602.00
2022-09-11T05:38:50.521Z,98598.78
2022-09-11T05:41:17.357Z,98600.31
2022-09-11T05:43:44.324Z,98605.63
2022-09-11T05:46:15.049Z,98607.16
2022-09-11T05:48:41.918Z,98612.06
2022-09-11T05:51:13.593Z,98614.00
2022-09-11T05:53:41.271Z,98619.31
2022-09-11T05:56:14.118Z,98620.44
2022-09-11T05:58:40.536Z,98620.97
2022-09-11T06:01:10.471Z,98635.06
2022-09-11T06:03:38.671Z,98644.91
2022-09-11T06:06:08.820Z,98641.41
2022-09-11T06:08:36.727Z,98647.66
2022-09-11T06:11:08.719Z,98650.72
2022-09-11T06:13:39.144Z,98650.31
2022-09-11T06:16:19.053Z,98653.69
2022-09-11T06:18:49.068Z,98657.78
2022-09-11T06:21:19.963Z,98662.09
2022-09-11T06:23:48.823Z,98666.13
2022-09-11T06:26:18.488Z,98660.38
2022-09-11T06:28:44.993Z,98666.84
2022-09-11T06:31:16.309Z,98669.38
2022-09-11T06:33:43.181Z,98662.28
2022-09-11T06:36:13.378Z,98679.94
2022-09-11T06:38:40.319Z,98677.41
2022-09-11T06:41:12.513Z,98670.69
2022-09-11T06:43:39.418Z,98669.13
2022-09-11T06:46:07.916Z,98671.31
2022-09-11T06:48:34.442Z,98671.88
2022-09-11T06:51:04.981Z,98669.31
2022-09-11T06:53:31.515Z,98672.97
2022-09-11T06:56:06.770Z,98679.38
2022-09-11T06:58:33.500Z,98677.94
2022-09-11T07:01:05.490Z,98673.47
2022-09-11T07:03:33.146Z,98680.78
2022-09-11T07:06:00.823Z,98682.03
2022-09-11T07:08:27.971Z,98680.69
2022-09-11T07:10:55.234Z,98686.84
2022-09-11T07:13:24.231Z,98682.50
2022-09-11T07:16:03.864Z,98693.38
2022-09-11T07:18:43.355Z,98694.38
2022-09-11T07:21:13.751Z,98691.31
2022-09-11T07:23:41.229Z,98683.41
2022-09-11T07:26:11.787Z,98689.59
2022-09-11T07:28:39.596Z,98694.66
2022-09-11T07:31:20.699Z,98685.88
2022-09-11T07:33:49.955Z,98694.44
2022-09-11T07:36:23.011Z,98684.78
2022-09-11T07:38:51.291Z,98689.16
2022-09-11T07:41:22.013Z,98691.66
2022-09-11T07:43:57.297Z,98693.91
2022-09-11T07:46:25.119Z,98692.63
2022-09-11T07:48:51.591Z,98695.41
2022-09-11T07:51:19.218Z,98695.25
2022-09-11T07:53:51.738Z,98701.66
2022-09-11T07:56:24.834Z,98699.31
2022-09-11T07:58:54.873Z,98704.75
2022-09-11T08:01:27.737Z,98701.94
2022-09-11T08:04:05.461Z,98693.28
2022-09-11T08:06:35.606Z,98688.25
2022-09-11T08:09:06.819Z,98694.84
2022-09-11T08:11:39.349Z,98695.28
2022-09-11T08:14:07.314Z,98704.81
2022-09-11T08:16:35.972Z,98702.00
2022-09-11T08:19:02.559Z,98704.66
2022-09-11T08:21:29.198Z,98705.06
2022-09-11T08:23:55.643Z,98712.16
2022-09-11T08:26:26.056Z,98709.94
2022-09-11T08:28:55.503Z,98708.47
2022-09-11T08:31:28.824Z,98711.94
2022-09-11T08:33:56.487Z,98721.44
2022-09-11T08:36:24.291Z,98719.06
2022-09-11T08:38:52.407Z,98723.03
2022-09-11T08:41:42.968Z,98728.50
2022-09-11T08:44:09.312Z,98736.34
2022-09-11T08:46:42.945Z,98727.38
2022-09-11T08:49:24.612Z,98739.88
2022-09-11T08:51:56.203Z,98741.25
2022-09-11T08:54:33.368Z,98739.66
2022-09-11T08:57:17.693Z,98737.13
2022-09-11T09:00:19.702Z,98735.13
2022-09-11T09:03:02.878Z,98746.72
2022-09-11T09:06:02.286Z,98751.00
2022-09-11T09:08:59.078Z,98743.97
2022-09-11T09:11:44.745Z,98744.09
2022-09-11T09:14:47.718Z,98751.56
2022-09-11T09:17:24.944Z,98755.03
2022-09-11T09:20:31.799Z,98755.50
2022-09-11T09:23:06.587Z,98756.88
2022-09-11T09:25:42.029Z,98750.78
2022-09-11T09:28:20.474Z,98757.94
2022-09-11T09:30:54.433Z,98756.66
2022-09-11T09:33:29.053Z,98755.91
2022-09-11T09:35:55.611Z,98755.78
2022-09-11T09:38:28.090Z,98758.28
2022-09-11T09:41:32.538Z,98760.28
2022-09-11T09:44:29.856Z,98756.22
2022-09-11T09:46:56.617Z,98755.28
2022-09-11T09:49:37.335Z,98754.31
2022-09-11T09:52:26.428Z,98751.59
2022-09-11T09:55:00.328Z,98752.97
2022-09-11T09:57:41.258Z,98757.91
2022-09-11T10:00:11.617Z,98752.56
2022-09-11T10:02:52.690Z,98765.22
2022-09-11T10:05:40.804Z,98772.44
2022-09-11T10:08:29.113Z,98754.06
2022-09-11T10:11:08.714Z,98766.44
2022-09-11T10:13:41.693Z,98764.22
2022-09-11T10:16:25.372Z,98767.41
2022-09-11T10:18:54.221Z,98772.16
2022-09-11T10:21:24.240Z,98771.16
2022-09-11T10:23:57.033Z,98777.88
2022-09-11T10:26:49.753Z,98772.84
2022-09-11T10:29:26.806Z,98778.50
2022-09-11T10:31:57.958Z,98771.31
2022-09-11T10:34:27.899Z,98774.81
2022-09-11T10:37:07.552Z,98778.78
2022-09-11T10:39:37.358Z,98785.19
2022-09-11T10:42:29.283Z,98781.91
2022-09-11T10:45:16.912Z,98779.38
2022-09-11T10:47:48.363Z,98785.50
2022-09-11T10:50:17.836Z,98780.41
2022-09-11T10:53:15.012Z,98772.69
2022-09-11T10:55:52.095Z,98767.44
2022-09-11T10:58:27.181Z,98767.13
2022-09-11T11:00:53.887Z,98773.00
2022-09-11T11:03:26.226Z,98771.47
2022-09-11T11:06:25.721Z,98772.06
2022-09-11T11:09:36.745Z,98771.22
2022-09-11T11:12:10.764Z,98779.09
2022-09-11T11:15:21.721Z,98774.72
2022-09-11T11:18:38.122Z,98772.38
2022-09-11T11:21:25.618Z,98779.69
2022-09-11T11:24:33.655Z,98784.13
2022-09-11T11:27:56.534Z,98788.13
2022-09-11T11:31:15.703Z,98780.28
2022-09-11T11:34:22.085Z,98774.19
2022-09-11T11:37:14.662Z,98770.06
2022-09-11T11:40:10.795Z,98763.84
2022-09-11T11:43:03.409Z,98764.84
2022-09-11T11:45:43.272Z,98761.25
2022-09-11T11:48:28.906Z,98751.53
2022-09-11T11:51:06.164Z,98754.16
2022-09-11T11:53:48.243Z,98768.13
2022-09-11T11:56:45.964Z,98760.91
2022-09-11T11:59:55.896Z,98772.69
2022-09-11T12:02:58.284Z,98766.00
2022-09-11T12:05:31.497Z,98770.56
2022-09-11T12:07:58.647Z,98765.59
2022-09-11T12:10:34.530Z,98767.59
2022-09-11T12:13:07.334Z,98757.06
2022-09-11T12:15:36.634Z,98757.69
2022-09-11T12:18:11.919Z,98757.22
2022-09-11T12:20:44.910Z,98757.59
2022-09-11T12:23:30.098Z,98758.97
2022-09-11T12:26:20.631Z,98773.06
2022-09-11T12:28:47.261Z,98762.28
2022-09-11T12:31:17.036Z,98760.81
2022-09-11T12:33:43.567Z,98761.81
2022-09-11T12:36:16.809Z,98757.84
2022-09-11T12:38:53.855Z,98758.19
2022-09-11T12:41:35.628Z,98762.53
2022-09-11T12:44:05.074Z,98753.59
2022-09-11T12:46:31.419Z,98763.28
2022-09-11T12:49:23.781Z,98748.31
2022-09-11T12:51:55.203Z,98742.50
2022-09-11T12:54:38.984Z,98744.88
2022-09-11T12:57:15.855Z,98731.94
2022-09-11T12:59:51.092Z,98729.91
2022-09-11T13:02:39.390Z,98732.09
2022-09-11T13:05:38.080Z,98735.34
2022-09-11T13:08:22.183Z,98732.41
2022-09-11T13:10:48.990Z,98726.59
2022-09-11T13:13:37.417Z,98717.09
2022-09-11T13:16:25.956Z,98730.28
2022-09-11T13:19:05.766Z,98727.94
2022-09-11T13:21:39.039Z,98725.72
2022-09-11T13:24:21.209Z,98723.34
2022-09-11T13:26:55.029Z,98721.81
2022-09-11T13:29:26.659Z,98711.97
2022-09-11T13:31:55.685Z,98710.47
2022-09-11T13:34:27.271Z,98708.97
2022-09-11T13:36:57.052Z,98716.53
2022-09-11T13:39:27.121Z,98716.53
2022-09-11T13:42:04.929Z,98718.53
2022-09-11T13:44:47.052Z,98714.81
2022-09-11T13:47:23.809Z,98718.47
2022-09-11T13:50:02.316Z,98719.13
2022-09-11T13:52:33.878Z,98714.47
2022-09-11T13:55:28.545Z,98712.81
2022-09-11T14:00:45.496Z,98698.78
2022-09-11T14:03:27.992Z,98700.66
2022-09-11T14:05:59.773Z,98697.84
2022-09-11T14:08:35.104Z,98698.53
2022-09-11T14:11:11.654Z,98709.88
2022-09-11T14:13:56.534Z,98697.50
2022-09-11T14:16:36.307Z,98690.47
2022-09-11T14:19:09.211Z,98691.97
2022-09-11T14:21:40.020Z,98693.81
2022-09-11T14:24:32.741Z,98688.13
2022-09-11T14:27:02.211Z,98680.88
2022-09-11T14:29:32.647Z,98681.03
2022-09-11T14:32:31.143Z,98672.97
2022-09-11T14:34:58.919Z,98671.41
2022-09-11T14:37:29.601Z,98674.06
2022-09-11T14:39:59.995Z,98675.19
2022-09-11T14:42:31.555Z,98677.91
2022-09-11T14:44:58.126Z,98682.72
2022-09-11T14:47:28.635Z,98690.41
2022-09-11T14:49:57.389Z,98683.59
2022-09-11T14:52:29.534Z,98694.97
2022-09-11T14:54:59.900Z,98694.78
2022-09-11T14:57:34.084Z,98695.13
2022-09-11T15:00:00.958Z,98696.84
2022-09-11T15:02:29.553Z,98691.16
2022-09-11T15:04:57.920Z,98694.50
2022-09-11T15:07:25.628Z,98693.13
2022-09-11T15:09:54.546Z,98684.59
2022-09-11T15:12:22.288Z,98686.41
2022-09-11T15:14:58.024Z,98680.72
2022-09-11T15:17:30.404Z,98675.19
2022-09-11T15:19:59.879Z,98683.22
2022-09-11T15:22:26.632Z,98676.69
2022-09-11T15:24:53.716Z,98672.63
2022-09-11T15:27:20.234Z,98672.13
2022-09-11T15:29:46.719Z,98670.94
2022-09-11T15:32:14.289Z,98665.91
2022-09-11T15:34:41.899Z,98664.25
2022-09-11T15:37:08.391Z,98666.28
2022-09-11T15:39:35.367Z,98671.59
2022-09-11T15:42:01.928Z,98667.59
2022-09-11T15:44:28.939Z,98660.94
2022-09-11T15:46:58.670Z,98666.09
2022-09-11T15:49:29.106Z,98664.78
2022-09-11T15:51:56.422Z,98667.75
2022-09-11T15:54:23.717Z,98670.31
2022-09-11T15:56:52.114Z,98666.31
2022-09-11T15:59:18.927Z,98663.13
2022-09-11T16:01:45.688Z,98664.28
2022-09-11T16:04:18.564Z,98665.63
2022-09-11T16:06:48.308Z,98666.81
2022-09-11T16:09:19.967Z,98664.97
2022-09-11T16:11:47.847Z,98666.28
2022-09-11T16:14:27.126Z,98664.25
2022-09-11T16:16:55.934Z,98676.56
2022-09-11T16:19:27.781Z,98671.72
2022-09-11T16:21:57.004Z,98675.53
2022-09-11T16:24:26.510Z,98672.00
2022-09-11T16:26:55.801Z,98671.78
2022-09-11T16:29:25.678Z,98660.06
2022-09-11T16:31:52.463Z,98666.09
2022-09-11T16:34:19.042Z,98664.06
2022-09-11T16:36:46.260Z,98674.06
2022-09-11T16:39:17.058Z,98669.50
2022-09-11T16:41:43.649Z,98668.00
2022-09-11T16:44:16.124Z,98668.47
2022-09-11T16:46:45.579Z,98665.78
2022-09-11T16:49:18.344Z,98662.59
2022-09-11T16:51:47.179Z,98655.78
2022-09-11T16:54:13.870Z,98661.25
2022-09-11T16:56:45.230Z,98667.25
2022-09-11T16:59:12.347Z,98658.00
2022-09-11T17:01:39.040Z,98662.81
2022-09-11T17:04:05.565Z,98665.66
2022-09-11T17:06:32.251Z,98653.78
2022-09-11T17:09:02.830Z,98659.97
2022-09-11T17:11:32.062Z,98660.47
2022-09-11T17:14:02.392Z,98666.44
2022-09-11T17:16:32.889Z,98660.84
2022-09-11T17:19:01.517Z,98665.66
2022-09-11T17:21:35.553Z,98673.28
2022-09-11T17:24:04.827Z,98672.16
2022-09-11T17:26:31.874Z,98670.63
2022-09-11T17:29:03.156Z,98666.88
2022-09-11T17:31:30.129Z,98671.78
2022-09-11T17:33:56.697Z,98663.88
2022-09-11T17:36:23.913Z,98666.34
2022-09-11T17:38:55.181Z,98666.78
2022-09-11T17:41:21.679Z,98665.19
2022-09-11T17:43:49.191Z,98671.00
2022-09-11T17:46:20.509Z,98672.06
2022-09-11T17:48:47.987Z,98670.56
2022-09-11T17:51:24.864Z,98670.00
2022-09-11T17:53:56.149Z,98675.94
2022-09-11T17:56:27.168Z,98672.84
2022-09-11T17:58:57.392Z,98679.03
2022-09-11T18:01:30.363Z,98678.38
2022-09-11T18:03:59.145Z,98672.34
2022-09-11T18:06:36.874Z,98675.72
2022-09-11T18:09:11.938Z,98681.00
2022-09-11T18:11:45.068Z,98687.56
2022-09-11T18:14:13.617Z,98686.56
2022-09-11T18:16:43.531Z,98685.97
2022-09-11T18:19:10.603Z,98690.69
2022-09-11T18:21:38.444Z,98691.69
2022-09-11T18:24:07.368Z,98691.13
2022-09-11T18:26:39.454Z,98687.84
2022-09-11T18:29:11.239Z,98685.41
2022-09-11T18:31:42.525Z,98686.09
2022-09-11T18:34:13.399Z,98680.09
2022-09-11T18:36:40.042Z,98683.84
2022-09-11T18:39:06.526Z,98688.41
2022-09-11T18:41:37.282Z,98681.22
2022-09-11T18:44:08.780Z,98675.31
2022-09-11T18:46:37.275Z,98682.94
2022-09-11T18:49:05.147Z,98693.97
2022-09-11T18:51:32.524Z,98687.81
2022-09-11T18:54:00.213Z,98695.88
2022-09-11T18:56:29.499Z,98693.03
2022-09-11T18:58:56.294Z,98687.41
2022-09-11T19:01:27.404Z,98694.88
2022-09-11T19:03:55.291Z,98701.25
2022-09-11T19:06:28.221Z,98699.25
2022-09-11T19:08:55.909Z,98695.69
2022-09-11T19:11:26.706Z,98701.69
2022-09-11T19:14:00.291Z,98695.69
2022-09-11T19:16:26.834Z,98688.97
2022-09-11T19:18:53.330Z,98683.94
2022-09-11T19:21:23.309Z,98689.50
2022-09-11T19:23:55.861Z,98684.41
2022-09-11T19:26:26.885Z,98684.25
2022-09-11T19:28:56.130Z,98681.25
2022-09-11T19:31:27.481Z,98694.03
2022-09-11T19:33:55.340Z,98699.97
2022-09-11T19:36:25.313Z,98698.03
2022-09-11T19:38:55.843Z,98701.31
2022-09-11T19:41:25.741Z,98704.59
2022-09-11T19:43:54.004Z,98692.94
2022-09-11T19:46:27.223Z,98706.56
2022-09-11T19:48:57.931Z,98712.78
2022-09-11T19:51:28.542Z,98706.63
2022-09-11T19:54:00.235Z,98713.59
2022-09-11T19:56:29.203Z,98711.72
2022-09-11T19:58:56.067Z,98719.53
2022-09-11T20:01:25.421Z,98726.91
2022-09-11T20:03:54.260Z,98724.00
2022-09-11T20:06:26.163Z,98724.28
2022-09-11T20:09:13.483Z,98726.41
2022-09-11T20:11:41.530Z,98733.41
2022-09-11T20:14:08.003Z,98729.69
2022-09-11T20:16:34.632Z,98721.84
2022-09-11T20:19:09.234Z,98728.13
2022-09-11T20:21:36.121Z,98726.69
2022-09-11T20:24:07.147Z,98723.75
2022-09-11T20:26:34.923Z,98728.13
2022-09-11T20:29:08.704Z,98732.19
2022-09-11T20:31:47.426Z,98735.69
2022-09-11T20:34:17.321Z,98727.88
2022-09-11T20:36:43.858Z,98726.19
2022-09-11T20:39:13.502Z,98724.84
2022-09-11T20:41:40.269Z,98728.47
2022-09-11T20:44:06.735Z,98724.84
2022-09-11T20:46:33.335Z,98722.16
2022-09-11T20:49:00.709Z,98713.59
2022-09-11T20:51:27.642Z,98711.06
2022-09-11T20:53:56.001Z,98710.69
2022-09-11T20:56:23.709Z,98712.25
2022-09-11T20:58:50.909Z,98713.22
2022-09-11T21:01:22.734Z,98715.88
2022-09-11T21:03:53.561Z,98717.28
2022-09-11T21:06:26.027Z,98718.97
2022-09-11T21:08:58.995Z,98716.91
2022-09-11T21:11:27.506Z,98716.66
2022-09-11T21:13:54.411Z,98712.78
2022-09-11T21:16:21.666Z,98707.47
2022-09-11T21:18:58.538Z,98710.34
2022-09-11T21:21:27.015Z,98697.38
2022-09-11T21:24:01.171Z,98702.50
2022-09-11T21:26:29.699Z,98704.66
2022-09-11T21:28:58.451Z,98699.38
2022-09-11T21:31:26.305Z,98696.81
2022-09-11T21:33:53.751Z,98702.09
2022-09-11T21:36:20.608Z,98695.88
2022-09-11T21:38:47.050Z,98691.44
2022-09-11T21:41:14.311Z,98691.31
2022-09-11T21:43:41.072Z,98694.31
2022-09-11T21:46:09.102Z,98684.31
2022-09-11T21:48:39.338Z,98685.75
2022-09-11T21:51:09.913Z,98684.22
2022-09-11T21:53:38.657Z,98685.72
2022-09-11T21:56:05.816Z,98688.97
2022-09-11T21:58:32.274Z,98692.72
2022-09-11T22:01:05.757Z,98683.31
2022-09-11T22:03:32.353Z,98682.56
2022-09-11T22:05:58.779Z,98680.69
2022-09-11T22:08:25.298Z,98678.31
2022-09-11T22:10:51.935Z,98685.28
2022-09-11T22:13:19.616Z,98684.03
2022-09-11T22:15:49.986Z,98677.22
2022-09-11T22:18:18.122Z,98683.16
2022-09-11T22:20:45.972Z,98671.50
2022-09-11T22:23:21.727Z,98672.53
2022-09-11T22:25:56.559Z,98666.41
2022-09-11T22:28:22.991Z,98671.06
2022-09-11T22:30:49.411Z,98677.81
2022-09-11T22:33:15.924Z,98672.31
2022-09-11T22:35:44.066Z,98671.56
2022-09-11T22:38:12.131Z,98669.41
2022-09-11T22:40:38.831Z,98667.47
2022-09-11T22:43:05.812Z,98671.06
2022-09-11T22:45:32.273Z,98670.56
2022-09-11T22:47:59.212Z,98669.63
2022-09-11T22:50:26.151Z,98673.22
2022-09-11T22:52:52.956Z,98666.69
2022-09-11T22:55:19.606Z,98662.34
2022-09-11T22:57:46.202Z,98668.53
2022-09-11T23:00:14.842Z,98666.84
2022-09-11T23:02:41.919Z,98670.25
2022-09-11T23:05:27.583Z,98665.66
2022-09-11T23:07:54.611Z,98661.63
2022-09-11T23:10:23.354Z,98661.16
2022-09-11T23:12:52.405Z,98657.41
2022-09-11T23:15:20.111Z,98657.22
2022-09-11T23:17:46.858Z,98658.72
2022-09-11T23:20:13.917Z,98657.44
2022-09-11T23:22:40.370Z,98653.13
2022-09-11T23:25:07.715Z,98663.59
2022-09-11T23:27:34.251Z,98670.38
2022-09-11T23:30:00.717Z,98665.31
2022-09-11T23:32:27.160Z,98664.66
2022-09-11T23:34:53.603Z,98665.31
2022-09-11T23:37:20.063Z,98662.91
2022-09-11T23:39:46.736Z,98674.78
2022-09-11T23:42:13.294Z,98673.53
2022-09-11T23:44:39.739Z,98665.38
2022-09-11T23:47:06.245Z,98659.41
2022-09-11T23:49:36.193Z,98668.25
2022-09-11T23:52:04.806Z,98666.56
2022-09-11T23:54:31.335Z,98668.91
2022-09-11T23:56:57.965Z,98662.25
2022-09-11T23:59:24.451Z,98652.03
